Stevensville, MD

9:40 AM EDT on August 16, 2017 (GMT -0400)
Stevensville

Weather History for KW29 - January, 2013

Change the Weather History Date:

Thursday, January 3, 2013

  Actual Average (KESN) Record (KESN)
Temperature  
Mean Temperature 32 °F -  
Max Temperature 35 °F 42 °F 61 °F (1964)
Min Temperature 30 °F 25 °F 12 °F (2014)
Degree Days  
Heating Degree Days 32    
Moisture  
Dew Point 19 °F    
Average Humidity 57    
Maximum Humidity 70    
Minimum Humidity 48    
Precipitation  
Precipitation 0.00 in - - ()
Sea Level Pressure  
Sea Level Pressure 30.21 in    
Wind  
Wind Speed 5 mph (WSW)    
Max Wind Speed 10 mph    
Max Gust Speed -    
Visibility 10 miles    
Events      
Averages and records for this station are not official NWS values.
T = Trace of Precipitation, MM = Missing Value Source: NWS Daily Summary

Daily Weather History Graph

Daily Weather History Graph

Search for Another Location

Airport or City:

Trip Planner

Search our weather history database for the weather conditions in past years. The results will help you decide how hot, cold, wet, or windy it might be!

Date:

Astronomy

Jan. 03, 2013 Rise Set
Actual Time 7:24 AM EST 4:55 PM EST
Civil Twilight 6:54 AM EST 5:25 PM EST
Nautical Twilight 6:21 AM EST 5:58 PM EST
Astronomical Twilight 5:48 AM EST 6:31 PM EST
Moon 11:25 PM EST (1/3) 10:38 AM EST (1/3)
Length of Visible Light 10h 30m
Length of Day
9h 31m
Waning Gibbous, 65% of the Moon is Illuminated
Jan 3
Waning Gibbous
Jan 4
Last Quarter
Jan 11
New
Jan 18
First Quarter
Jan 26
Full

Hourly Weather History & Observations

Time (EST) Temp. Windchill Dew Point Humidity Pressure Visibility Wind Dir Wind Speed Gust Speed Precip Events Conditions
12:03 AM 32.0 °F 25.6 °F 14.0 °F 48% 30.23 in 10.0 mi NNW 6.9 mph - N/A   Clear
12:25 AM 32.0 °F 24.8 °F 14.0 °F 48% 30.24 in 10.0 mi NNW 8.1 mph - N/A   Clear
1:07 AM 32.0 °F 26.4 °F 17.6 °F 55% 30.23 in 10.0 mi NNW 5.8 mph - N/A   Clear
1:28 AM 32.0 °F 24.8 °F 15.8 °F 51% 30.23 in 10.0 mi NNW 8.1 mph - N/A   Clear
1:50 AM 32.0 °F 24.8 °F 14.0 °F 48% 30.23 in 10.0 mi North 8.1 mph - N/A   Clear
2:54 AM 32.0 °F 25.6 °F 14.0 °F 48% 30.24 in 10.0 mi North 6.9 mph - N/A   Clear
3:15 AM 32.0 °F 25.6 °F 15.8 °F 51% 30.24 in 10.0 mi North 6.9 mph - N/A   Clear
3:57 AM 32.0 °F 26.4 °F 15.8 °F 51% 30.23 in 10.0 mi North 5.8 mph - N/A   Clear
4:19 AM 32.0 °F 27.5 °F 15.8 °F 51% 30.22 in 10.0 mi North 4.6 mph - N/A   Clear
4:40 AM 30.2 °F 25.4 °F 15.8 °F 55% 30.22 in 10.0 mi North 4.6 mph - N/A   Clear
5:01 AM 30.2 °F 25.4 °F 17.6 °F 60% 30.22 in 10.0 mi North 4.6 mph - N/A   Clear
5:22 AM 30.2 °F 25.4 °F 17.6 °F 60% 30.22 in 10.0 mi North 4.6 mph - N/A   Clear
5:44 AM 30.2 °F 25.4 °F 15.8 °F 55% 30.23 in 10.0 mi North 4.6 mph - N/A   Clear
6:05 AM 30.2 °F 24.3 °F 15.8 °F 55% 30.23 in 10.0 mi North 5.8 mph - N/A   Clear
6:48 AM 30.2 °F 26.7 °F 17.6 °F 60% 30.24 in 10.0 mi NNE 3.5 mph - N/A   Scattered Clouds
7:09 AM 30.2 °F 26.7 °F 17.6 °F 60% 30.25 in 10.0 mi NNE 3.5 mph - N/A   Scattered Clouds
7:30 AM 30.2 °F - 17.6 °F 60% 30.25 in 10.0 mi Calm Calm - N/A   Scattered Clouds
7:51 AM 30.2 °F - 17.6 °F 60% 30.25 in 10.0 mi Calm Calm - N/A   Scattered Clouds
8:12 AM 30.2 °F - 17.6 °F 60% 30.25 in 10.0 mi Calm Calm - N/A   Clear
8:34 AM 30.2 °F - 17.6 °F 60% 30.25 in 10.0 mi Calm Calm - N/A   Clear
8:55 AM 32.0 °F - 19.4 °F 60% 30.26 in 10.0 mi Calm Calm - N/A   Clear
9:08 AM 32.0 °F - 19.4 °F 60% 30.25 in 10.0 mi Calm Calm - N/A   Clear
9:37 AM 32.0 °F - 17.6 °F 55% 30.26 in 10.0 mi Calm Calm - N/A   Clear
9:59 AM 32.0 °F - 17.6 °F 55% 30.26 in 10.0 mi Calm Calm - N/A   Clear
10:20 AM 32.0 °F 28.7 °F 17.6 °F 55% 30.26 in 10.0 mi NW 3.5 mph - N/A   Clear
10:41 AM 32.0 °F 28.7 °F 17.6 °F 55% 30.25 in 10.0 mi WNW 3.5 mph - N/A   Clear
11:02 AM 32.0 °F - 17.6 °F 55% 30.25 in 10.0 mi Calm Calm - N/A   Clear
11:23 AM 32.0 °F - 17.6 °F 55% 30.24 in 10.0 mi Calm Calm - N/A   Clear
11:45 AM 32.0 °F 28.7 °F 17.6 °F 55% 30.23 in 10.0 mi SW 3.5 mph - N/A   Clear
12:06 PM 32.0 °F 26.4 °F 15.8 °F 51% 30.23 in 10.0 mi WSW 5.8 mph - N/A   Clear
12:27 PM 32.0 °F 27.5 °F 17.6 °F 55% 30.21 in 10.0 mi WSW 4.6 mph - N/A   Clear
12:48 PM 33.8 °F 30.8 °F 17.6 °F 52% 30.19 in 10.0 mi SW 3.5 mph - N/A   Clear
1:31 PM 33.8 °F 27.7 °F 17.6 °F 52% 30.18 in 10.0 mi WSW 6.9 mph - N/A   Clear
1:52 PM 33.8 °F 28.6 °F 17.6 °F 52% 30.17 in 10.0 mi SSW 5.8 mph - N/A   Clear
2:13 PM 33.8 °F 28.6 °F 17.6 °F 52% 30.17 in 10.0 mi South 5.8 mph - N/A   Clear
2:35 PM 33.8 °F 28.6 °F 17.6 °F 52% 30.16 in 10.0 mi SSW 5.8 mph - N/A   Clear
2:56 PM 35.6 °F 29.9 °F 17.6 °F 48% 30.17 in 10.0 mi SSW 6.9 mph - N/A   Clear
3:17 PM 35.6 °F 30.7 °F 17.6 °F 48% 30.18 in 10.0 mi SSW 5.8 mph - N/A   Clear
3:38 PM 35.6 °F 30.7 °F 19.4 °F 52% 30.17 in 10.0 mi SW 5.8 mph - N/A   Clear
4:00 PM 35.6 °F 29.9 °F 19.4 °F 52% 30.16 in 10.0 mi SSW 6.9 mph - N/A   Clear
4:21 PM 35.6 °F 30.7 °F 19.4 °F 52% 30.17 in 10.0 mi SSW 5.8 mph - N/A   Clear
4:42 PM 33.8 °F 29.6 °F 19.4 °F 56% 30.18 in 10.0 mi SSW 4.6 mph - N/A   Clear
5:03 PM 33.8 °F 29.6 °F 19.4 °F 56% 30.18 in 10.0 mi SW 4.6 mph - N/A   Clear
5:46 PM 33.8 °F 27.7 °F 19.4 °F 56% 30.19 in 10.0 mi WSW 6.9 mph - N/A   Clear
6:07 PM 33.8 °F 28.6 °F 19.4 °F 56% 30.19 in 10.0 mi SW 5.8 mph - N/A   Clear
6:28 PM 33.8 °F 29.6 °F 19.4 °F 56% 30.19 in 10.0 mi SW 4.6 mph - N/A   Clear
6:49 PM 33.8 °F 27.0 °F 19.4 °F 56% 30.19 in 10.0 mi SW 8.1 mph - N/A   Clear
7:11 PM 33.8 °F 30.8 °F 19.4 °F 56% 30.19 in 10.0 mi SW 3.5 mph - N/A   Clear
7:32 PM 33.8 °F 27.0 °F 21.2 °F 60% 30.19 in 10.0 mi SW 8.1 mph - N/A   Clear
7:53 PM 33.8 °F 27.7 °F 21.2 °F 60% 30.19 in 10.0 mi SW 6.9 mph - N/A   Clear
8:15 PM 33.8 °F 27.7 °F 23.0 °F 65% 30.19 in 10.0 mi SW 6.9 mph - N/A   Clear
8:36 PM 33.8 °F 28.6 °F 23.0 °F 65% 30.19 in 10.0 mi SW 5.8 mph - N/A   Clear
8:57 PM 33.8 °F 28.6 °F 23.0 °F 65% 30.19 in 10.0 mi SW 5.8 mph - N/A   Clear
9:18 PM 33.8 °F 28.6 °F 23.0 °F 65% 30.19 in 10.0 mi SW 5.8 mph - N/A   Clear
9:40 PM 33.8 °F 28.6 °F 23.0 °F 65% 30.19 in 10.0 mi SW 5.8 mph - N/A   Clear
10:01 PM 33.8 °F 27.0 °F 23.0 °F 65% 30.19 in 10.0 mi SW 8.1 mph - N/A   Clear
10:22 PM 33.8 °F 27.0 °F 23.0 °F 65% 30.19 in 10.0 mi SW 8.1 mph - N/A   Clear
10:43 PM 33.8 °F 27.7 °F 23.0 °F 65% 30.20 in 10.0 mi WSW 6.9 mph - N/A   Clear
11:26 PM 33.8 °F 28.6 °F 24.8 °F 70% 30.19 in 10.0 mi WSW 5.8 mph - N/A   Clear
11:47 PM 33.8 °F 25.8 °F 24.8 °F 70% 30.19 in 10.0 mi West 10.4 mph - N/A   Clear